Time;durP1;ratioP1;P1;durP2;ratioP2;P2;SDS_P1;SDS_P2;PMS_P1;PMS_P2;Temp;Humidity;BMP_temperature;BMP_pressure;BME280_temperature;BME280_humidity;BME280_pressure;Samples;Min_cycle;Max_cycle;Signal;HPM_P1;HPM_P2
2023/07/28 00:01:35;;;;;;;5.13;1.75;;;;;;;15.46;53.58;96370.75;5093208;28;20051;-64
2023/07/28 00:04:09;;;;;;;2.83;1.30;;;;;;;15.46;54.33;96361.06;5092630;28;20139;-64
2023/07/28 00:06:37;;;;;;;3.67;1.55;;;;;;;15.60;53.34;96360.25;5093024;28;20052;-63
2023/07/28 00:09:04;;;;;;;2.25;1.30;;;;;;;15.67;52.61;96352.78;5093182;28;20050;-63
2023/07/28 00:11:32;;;;;;;1.85;1.27;;;;;;;15.71;52.33;96354.28;5093095;28;20147;-64
2023/07/28 00:14:01;;;;;;;2.05;1.20;;;;;;;15.71;52.60;96343.75;5093027;28;20056;-64
2023/07/28 00:16:28;;;;;;;1.50;1.27;;;;;;;15.84;51.64;96356.19;5093045;28;20052;-62
2023/07/28 00:18:55;;;;;;;1.65;1.30;;;;;;;15.86;52.04;96352.50;5093229;28;20051;-63
2023/07/28 00:21:22;;;;;;;4.10;1.40;;;;;;;15.83;52.74;96354.50;5092954;28;20129;-63
2023/07/28 00:23:49;;;;;;;2.08;1.80;;;;;;;15.79;52.82;96361.75;5092887;28;20048;-63
2023/07/28 00:26:16;;;;;;;1.25;1.10;;;;;;;15.80;52.32;96360.78;5092786;28;20081;-64
2023/07/28 00:28:43;;;;;;;5.43;1.48;;;;;;;15.84;52.08;96369.38;5093395;28;20048;-64
2023/07/28 00:31:13;;;;;;;2.55;1.33;;;;;;;15.87;51.95;96367.38;5092907;28;20044;-64
2023/07/28 00:33:44;;;;;;;2.38;1.45;;;;;;;15.94;52.06;96364.34;5092957;28;20048;-64
2023/07/28 00:36:12;;;;;;;6.35;1.52;;;;;;;16.05;51.70;96361.94;5092561;28;20501;-64
2023/07/28 00:38:38;;;;;;;3.05;1.40;;;;;;;16.12;51.13;96371.16;5092828;28;20105;-64
2023/07/28 00:41:05;;;;;;;2.47;1.15;;;;;;;16.17;51.57;96373.50;5092730;28;20044;-64
2023/07/28 00:43:32;;;;;;;2.00;1.30;;;;;;;16.12;51.10;96373.78;5094555;28;20105;-64
2023/07/28 00:46:00;;;;;;;1.45;1.17;;;;;;;16.12;51.65;96375.56;5096711;28;20044;-64
2023/07/28 00:48:29;;;;;;;2.60;1.40;;;;;;;16.09;51.53;96378.41;5096649;28;20091;-64
2023/07/28 00:50:57;;;;;;;2.03;1.35;;;;;;;16.07;51.72;96381.13;5096713;28;20089;-63
2023/07/28 00:53:26;;;;;;;1.98;1.27;;;;;;;16.06;51.85;96376.81;5096576;28;20051;-64
2023/07/28 00:55:53;;;;;;;2.92;1.25;;;;;;;16.10;51.51;96370.38;5096471;28;20063;-63
2023/07/28 00:58:20;;;;;;;2.33;1.40;;;;;;;16.07;51.13;96378.50;5096636;28;20044;-63
2023/07/28 01:00:48;;;;;;;3.10;1.35;;;;;;;16.09;52.21;96375.75;5096491;28;20063;-64
2023/07/28 01:03:16;;;;;;;5.28;1.50;;;;;;;16.11;51.44;96376.53;5096180;28;20138;-64
2023/07/28 01:06:02;;;;;;;3.38;1.20;;;;;;;16.08;51.10;96384.63;5096283;28;20052;-64
2023/07/28 01:08:35;;;;;;;1.92;1.50;;;;;;;15.96;52.13;96376.56;5096322;28;20044;-64
2023/07/28 01:11:03;;;;;;;1.60;1.40;;;;;;;15.84;52.49;96379.91;5096207;28;20048;-63
2023/07/28 01:13:32;;;;;;;2.65;1.30;;;;;;;15.85;52.51;96378.97;5096217;28;20063;-63
2023/07/28 01:16:00;;;;;;;2.63;1.23;;;;;;;15.86;51.06;96375.41;5096174;28;20048;-64
2023/07/28 01:18:29;;;;;;;1.58;1.27;;;;;;;15.87;51.81;96379.72;5096255;28;20097;-63
2023/07/28 01:21:02;;;;;;;3.22;1.30;;;;;;;15.88;52.74;96384.91;5096150;28;20047;-64
2023/07/28 01:23:42;;;;;;;4.63;1.30;;;;;;;15.91;52.38;96392.63;5096358;28;20076;-64
2023/07/28 01:26:11;;;;;;;2.40;1.60;;;;;;;15.92;51.71;96383.78;5095898;28;20099;-64
2023/07/28 01:28:42;;;;;;;1.20;1.05;;;;;;;15.97;51.59;96380.88;5095936;28;20048;-64
2023/07/28 01:31:10;;;;;;;4.18;1.25;;;;;;;15.98;51.65;96377.28;5096003;28;20383;-64
2023/07/28 01:33:37;;;;;;;2.45;1.42;;;;;;;15.98;51.84;96379.94;5095837;28;20082;-64
2023/07/28 01:36:05;;;;;;;2.20;1.70;;;;;;;16.07;50.94;96375.03;5095954;28;20121;-64
2023/07/28 01:38:32;;;;;;;1.30;1.20;;;;;;;16.11;51.51;96382.66;5095687;28;20070;-64
2023/07/28 01:40:59;;;;;;;1.45;1.20;;;;;;;16.08;51.74;96376.72;5095683;28;20407;-63
2023/07/28 01:43:27;;;;;;;2.97;1.33;;;;;;;16.06;51.31;96378.59;5095616;28;20052;-63
2023/07/28 01:45:56;;;;;;;1.98;1.40;;;;;;;16.07;52.33;96375.84;5095635;28;20044;-64
2023/07/28 01:48:23;;;;;;;1.95;1.40;;;;;;;16.02;52.31;96377.97;5095675;28;20052;-64
2023/07/28 01:50:51;;;;;;;2.20;1.30;;;;;;;15.95;52.48;96381.91;5095391;28;20076;-64
2023/07/28 01:53:18;;;;;;;2.17;1.23;;;;;;;15.95;52.35;96379.25;5095096;28;20127;-63
2023/07/28 01:55:45;;;;;;;3.35;1.38;;;;;;;15.92;52.77;96383.78;5095220;28;20402;-64
2023/07/28 01:58:13;;;;;;;1.45;1.27;;;;;;;15.91;52.10;96390.00;5095356;28;20048;-64
2023/07/28 02:00:40;;;;;;;3.08;1.40;;;;;;;15.91;52.09;96384.72;5095269;28;20044;-64
2023/07/28 02:03:12;;;;;;;3.25;1.23;;;;;;;15.97;52.92;96393.22;5094922;28;20051;-64
2023/07/28 02:05:39;;;;;;;2.60;1.52;;;;;;;15.97;52.63;96393.22;5095113;28;20052;-64
2023/07/28 02:08:06;;;;;;;2.05;1.30;;;;;;;15.96;54.00;96388.84;5095130;28;20044;-64
2023/07/28 02:10:34;;;;;;;1.50;1.40;;;;;;;15.85;54.02;96386.88;5095130;28;20047;-63
2023/07/28 02:13:01;;;;;;;3.05;1.40;;;;;;;15.70;53.53;96386.03;5094977;28;20048;-64
2023/07/28 02:15:28;;;;;;;1.80;1.40;;;;;;;15.64;55.09;96392.53;5095064;28;20143;-63
2023/07/28 02:17:55;;;;;;;1.75;1.52;;;;;;;15.53;54.91;96390.53;5094942;28;20048;-64
2023/07/28 02:20:24;;;;;;;1.80;1.50;;;;;;;15.43;55.93;96399.94;5094956;28;20054;-63
2023/07/28 02:22:51;;;;;;;2.20;1.50;;;;;;;15.33;56.16;96397.00;5094817;28;20486;-64
2023/07/28 02:25:18;;;;;;;3.28;1.52;;;;;;;15.32;56.48;96397.97;5094786;28;20044;-64
2023/07/28 02:27:45;;;;;;;1.48;1.38;;;;;;;15.16;57.29;96398.84;5094789;28;20047;-64
2023/07/28 02:30:13;;;;;;;2.65;1.58;;;;;;;15.05;57.32;96406.56;5094720;28;20040;-64
2023/07/28 02:32:40;;;;;;;4.30;1.40;;;;;;;15.00;57.48;96401.56;5094683;28;20101;-63
2023/07/28 02:35:07;;;;;;;1.95;1.52;;;;;;;14.82;58.49;96408.72;5094587;28;20105;-63
2023/07/28 02:37:36;;;;;;;1.60;1.23;;;;;;;14.83;58.55;96410.41;5094635;28;20409;-64
2023/07/28 02:40:04;;;;;;;1.50;1.33;;;;;;;14.81;58.71;96413.13;5094625;28;20047;-64
2023/07/28 02:42:33;;;;;;;1.73;1.50;;;;;;;14.81;58.18;96415.75;5094584;28;20479;-64
2023/07/28 02:45:01;;;;;;;3.05;1.48;;;;;;;14.80;58.64;96415.84;5094484;28;20409;-64
2023/07/28 02:47:28;;;;;;;1.95;1.55;;;;;;;14.68;59.19;96415.59;5094397;28;20055;-63
2023/07/28 02:49:55;;;;;;;2.38;1.60;;;;;;;14.60;59.69;96423.09;5094263;28;20075;-63
2023/07/28 02:52:22;;;;;;;1.77;1.60;;;;;;;14.51;60.30;96432.34;5094253;28;20474;-64
2023/07/28 02:54:52;;;;;;;3.33;1.67;;;;;;;14.46;60.28;96427.34;5094285;28;20048;-63
2023/07/28 02:57:19;;;;;;;2.17;1.60;;;;;;;14.36;60.27;96423.53;5094280;28;20044;-63
2023/07/28 02:59:47;;;;;;;3.13;1.75;;;;;;;14.33;61.03;96427.16;5094174;28;20280;-63
2023/07/28 03:02:14;;;;;;;2.17;1.98;;;;;;;14.31;60.92;96423.78;5094076;28;20048;-64
2023/07/28 03:04:41;;;;;;;4.30;2.22;;;;;;;14.29;61.19;96428.25;5093693;28;20405;-63
2023/07/28 03:07:09;;;;;;;4.43;1.85;;;;;;;14.18;61.34;96428.84;5093138;28;20138;-64
2023/07/28 03:09:36;;;;;;;5.45;1.80;;;;;;;14.09;61.96;96429.34;5094119;28;20048;-63
2023/07/28 03:12:06;;;;;;;3.50;1.70;;;;;;;14.07;61.78;96421.53;5094025;28;20138;-63
2023/07/28 03:14:35;;;;;;;1.98;1.50;;;;;;;14.07;61.97;96429.44;5093950;28;20047;-64
2023/07/28 03:17:03;;;;;;;4.07;1.42;;;;;;;14.05;62.05;96427.84;5093915;28;20055;-63
2023/07/28 03:19:30;;;;;;;2.00;1.60;;;;;;;13.94;62.15;96445.00;5093914;28;20079;-63
2023/07/28 03:21:57;;;;;;;2.22;1.48;;;;;;;13.85;62.38;96445.50;5093699;28;20056;-63
2023/07/28 03:24:24;;;;;;;2.83;1.75;;;;;;;13.78;62.99;96444.97;5093768;28;20044;-64
2023/07/28 03:26:52;;;;;;;2.95;1.77;;;;;;;13.72;63.18;96440.88;5093618;28;20427;-64
2023/07/28 03:29:20;;;;;;;5.13;1.60;;;;;;;13.75;63.25;96450.38;5093613;28;20055;-64
2023/07/28 03:31:48;;;;;;;2.13;1.58;;;;;;;13.76;63.36;96446.84;5093790;28;20121;-64
2023/07/28 03:34:19;;;;;;;1.70;1.60;;;;;;;13.73;63.14;96447.84;5093675;28;20051;-64
2023/07/28 03:36:46;;;;;;;1.88;1.60;;;;;;;13.73;63.32;96453.09;5093500;28;20047;-63
2023/07/28 03:39:13;;;;;;;1.60;1.50;;;;;;;13.74;63.00;96462.69;5093478;28;20367;-64
2023/07/28 03:41:40;;;;;;;2.13;1.42;;;;;;;13.68;63.25;96455.13;5093514;28;20048;-63
2023/07/28 03:44:08;;;;;;;4.80;2.08;;;;;;;13.64;63.22;96450.97;5093415;28;20409;-63
2023/07/28 03:46:36;;;;;;;2.35;1.60;;;;;;;13.59;63.66;96452.97;5093418;28;20383;-64
2023/07/28 03:49:03;;;;;;;3.67;1.90;;;;;;;13.53;63.80;96454.13;5093382;28;20448;-64
2023/07/28 03:51:30;;;;;;;2.25;1.63;;;;;;;13.51;63.89;96451.59;5093312;28;20482;-63
2023/07/28 03:53:58;;;;;;;2.20;1.80;;;;;;;13.57;63.99;96458.31;5093227;28;20044;-64
2023/07/28 03:56:28;;;;;;;2.63;1.83;;;;;;;13.74;63.82;96461.84;5093093;28;20056;-63
2023/07/28 03:58:55;;;;;;;2.33;1.58;;;;;;;14.02;62.96;96452.50;5093168;28;20044;-64
2023/07/28 04:01:24;;;;;;;3.63;1.85;;;;;;;14.47;62.03;96465.00;5093311;28;20565;-64
2023/07/28 04:03:56;;;;;;;8.30;1.67;;;;;;;14.94;60.60;96462.47;5092895;28;20040;-64
2023/07/28 04:06:42;;;;;;;2.28;1.20;;;;;;;15.59;58.92;96461.34;5093035;28;20480;-64
2023/07/28 04:09:10;;;;;;;3.42;1.40;;;;;;;16.22;57.06;96471.69;5093081;28;20070;-64
2023/07/28 04:11:39;;;;;;;2.03;1.13;;;;;;;16.84;54.95;96469.59;5093159;28;20044;-64
2023/07/28 04:14:10;;;;;;;1.48;1.30;;;;;;;17.45;53.21;96463.03;5093094;28;20520;-64
2023/07/28 04:16:45;;;;;;;4.35;1.30;;;;;;;18.09;51.89;96465.81;5093392;28;20378;-64
2023/07/28 04:19:15;;;;;;;3.75;1.45;;;;;;;18.70;50.60;96475.69;5097255;28;20048;-64
2023/07/28 04:21:43;;;;;;;3.65;1.52;;;;;;;19.28;49.68;96479.50;5097286;28;20044;-64
2023/07/28 04:24:11;;;;;;;1.10;1.00;;;;;;;19.81;48.03;96476.38;5097292;28;20048;-64
2023/07/28 04:26:39;;;;;;;3.75;1.60;;;;;;;20.24;46.39;96478.53;5097134;28;20056;-64
2023/07/28 04:29:06;;;;;;;2.35;1.30;;;;;;;20.61;45.32;96483.56;5096988;28;20371;-64
2023/07/28 04:31:35;;;;;;;1.90;1.13;;;;;;;21.03;44.70;96482.91;5097098;28;20063;-64
2023/07/28 04:34:04;;;;;;;2.35;1.08;;;;;;;21.47;44.25;96484.69;5096823;28;20044;-64
2023/07/28 04:36:34;;;;;;;3.80;1.38;;;;;;;21.83;43.38;96479.91;5096826;28;20044;-64
2023/07/28 04:39:05;;;;;;;5.85;1.40;;;;;;;22.13;43.13;96485.41;5096927;28;20097;-64
2023/07/28 04:41:33;;;;;;;1.08;0.98;;;;;;;22.53;42.96;96485.56;5096892;28;20052;-64
2023/07/28 04:44:10;;;;;;;1.58;1.33;;;;;;;22.87;41.96;96493.28;5096888;28;20048;-64
2023/07/28 04:46:38;;;;;;;2.20;1.60;;;;;;;23.23;42.32;96501.63;5096665;28;20405;-64
2023/07/28 04:49:06;;;;;;;1.98;1.42;;;;;;;23.46;40.76;96496.06;5096711;28;20059;-64
2023/07/28 04:51:35;;;;;;;1.48;1.15;;;;;;;23.76;39.37;96503.19;5096656;28;20044;-63
2023/07/28 04:54:03;;;;;;;2.00;1.13;;;;;;;24.02;39.72;96497.25;5096614;28;20051;-63
2023/07/28 04:56:30;;;;;;;4.82;1.17;;;;;;;24.39;38.21;96493.78;5096539;28;20052;-63
2023/07/28 04:58:58;;;;;;;2.05;1.20;;;;;;;24.73;37.51;96490.53;5096644;28;20059;-63
2023/07/28 05:01:26;;;;;;;1.77;1.20;;;;;;;25.05;37.51;96503.59;5096476;28;20135;-64
2023/07/28 05:03:54;;;;;;;2.58;1.23;;;;;;;25.29;38.26;96511.06;5096109;28;20089;-64
2023/07/28 05:06:21;;;;;;;3.65;1.30;;;;;;;25.53;37.94;96500.72;5096268;28;20044;-63
2023/07/28 05:08:49;;;;;;;2.15;1.10;;;;;;;25.72;34.92;96505.94;5096245;28;20052;-64
2023/07/28 05:11:17;;;;;;;3.63;1.00;;;;;;;25.97;37.72;96507.94;5096273;28;20134;-64
2023/07/28 05:13:51;;;;;;;3.97;1.17;;;;;;;26.25;36.91;96511.31;5096223;28;20050;-63
2023/07/28 05:16:20;;;;;;;3.58;1.42;;;;;;;26.61;37.31;96518.41;5096392;28;20055;-64
2023/07/28 05:18:47;;;;;;;1.40;1.30;;;;;;;26.85;36.84;96514.16;5096243;28;20477;-64
2023/07/28 05:21:15;;;;;;;4.20;1.08;;;;;;;26.99;36.63;96525.28;5096120;28;20130;-63
2023/07/28 05:23:43;;;;;;;3.00;1.30;;;;;;;27.23;36.12;96519.16;5096097;28;20474;-64
2023/07/28 05:26:13;;;;;;;3.58;1.25;;;;;;;27.43;34.56;96524.22;5095425;28;20211;-64
2023/07/28 05:28:42;;;;;;;1.70;1.30;;;;;;;27.63;35.98;96519.38;5094968;28;20140;-64
2023/07/28 05:31:10;;;;;;;4.95;1.25;;;;;;;27.91;34.41;96515.56;5095905;28;20048;-64
2023/07/28 05:33:41;;;;;;;3.70;1.02;;;;;;;27.97;32.61;96524.78;5095766;28;20087;-64
2023/07/28 05:36:09;;;;;;;1.55;1.13;;;;;;;27.95;32.04;96519.56;5095735;28;20052;-64
2023/07/28 05:38:36;;;;;;;4.13;1.30;;;;;;;28.04;31.03;96525.78;5095753;28;20052;-64
2023/07/28 05:41:05;;;;;;;2.78;1.00;;;;;;;28.13;31.06;96526.59;5095656;28;20044;-64
2023/07/28 05:43:34;;;;;;;3.45;1.30;;;;;;;28.37;31.80;96523.06;5095744;28;20048;-64
2023/07/28 05:46:02;;;;;;;4.45;1.00;;;;;;;28.69;30.69;96516.91;5095477;28;20566;-64
2023/07/28 05:48:30;;;;;;;3.55;1.20;;;;;;;28.87;29.90;96519.38;5095546;28;20486;-64
2023/07/28 05:50:57;;;;;;;2.45;1.15;;;;;;;29.07;31.04;96527.88;5095520;28;20059;-64
2023/07/28 05:53:24;;;;;;;1.98;1.17;;;;;;;29.27;28.44;96530.13;5095518;28;20048;-64
2023/07/28 05:55:51;;;;;;;3.38;1.35;;;;;;;29.42;28.09;96535.59;5095497;28;20048;-64
2023/07/28 05:58:18;;;;;;;2.17;1.27;;;;;;;29.65;27.65;96540.19;5095548;28;20076;-64
2023/07/28 06:00:47;;;;;;;1.90;1.20;;;;;;;29.71;27.29;96538.63;5095320;28;20048;-64
2023/07/28 06:03:15;;;;;;;4.15;1.30;;;;;;;29.81;27.32;96535.66;5095094;28;20518;-64
2023/07/28 06:05:43;;;;;;;2.63;1.20;;;;;;;30.01;27.12;96534.16;5095239;28;20051;-64
2023/07/28 06:08:10;;;;;;;3.47;1.30;;;;;;;30.20;27.71;96534.69;5095148;28;20048;-63
2023/07/28 06:10:38;;;;;;;3.92;1.20;;;;;;;30.33;26.87;96534.06;5095214;28;20083;-64
2023/07/28 06:13:06;;;;;;;2.90;1.40;;;;;;;30.46;25.85;96532.59;5095057;28;20044;-64
2023/07/28 06:15:34;;;;;;;2.80;1.30;;;;;;;30.67;25.30;96534.50;5094988;28;20051;-64
2023/07/28 06:18:03;;;;;;;3.60;1.40;;;;;;;30.69;26.59;96537.03;5094989;28;20043;-64
2023/07/28 06:20:31;;;;;;;4.35;1.25;;;;;;;30.82;25.08;96541.81;5094910;28;20048;-64
2023/07/28 06:22:58;;;;;;;6.13;1.20;;;;;;;30.96;25.12;96538.25;5095106;28;20075;-64
2023/07/28 06:25:25;;;;;;;0.98;0.93;;;;;;;31.01;25.27;96545.78;5094921;28;20044;-64
2023/07/28 06:27:53;;;;;;;4.65;1.38;;;;;;;31.05;24.74;96543.53;5094775;28;20094;-64
2023/07/28 06:30:20;;;;;;;1.67;1.20;;;;;;;31.13;24.82;96543.44;5094754;28;20055;-63
2023/07/28 06:32:47;;;;;;;1.85;1.02;;;;;;;31.14;24.97;96547.81;5094745;28;20086;-63
2023/07/28 06:35:16;;;;;;;1.17;1.00;;;;;;;31.13;23.73;96544.28;5094651;28;20135;-64
2023/07/28 06:37:44;;;;;;;1.50;1.25;;;;;;;31.08;23.67;96541.31;5094752;28;20048;-64
2023/07/28 06:40:12;;;;;;;1.25;1.05;;;;;;;30.51;24.71;96544.50;5094596;28;20074;-64
2023/07/28 06:42:39;;;;;;;3.72;1.05;;;;;;;30.49;25.41;96545.69;5094512;28;20561;-64
2023/07/28 06:45:07;;;;;;;1.42;1.05;;;;;;;30.23;24.86;96544.25;5094493;28;20127;-64
2023/07/28 06:47:35;;;;;;;2.00;1.20;;;;;;;30.09;25.31;96537.78;5094243;28;20052;-64
2023/07/28 06:50:02;;;;;;;2.05;1.40;;;;;;;30.25;26.19;96528.75;5094423;28;20135;-64
2023/07/28 06:52:31;;;;;;;4.90;1.17;;;;;;;30.41;26.06;96529.59;5094431;28;20442;-64
2023/07/28 06:54:58;;;;;;;2.80;1.30;;;;;;;30.59;25.81;96527.38;5094267;28;20401;-64
2023/07/28 06:57:26;;;;;;;2.30;1.30;;;;;;;30.80;25.07;96527.66;5094375;28;20505;-64
2023/07/28 06:59:53;;;;;;;1.17;1.08;;;;;;;30.95;24.13;96535.75;5094228;28;20122;-64
2023/07/28 07:02:20;;;;;;;3.60;1.13;;;;;;;31.03;24.83;96532.94;5094064;28;20059;-64
2023/07/28 07:04:48;;;;;;;1.90;1.23;;;;;;;31.26;24.04;96527.41;5093847;28;20064;-64
2023/07/28 07:07:21;;;;;;;2.88;1.00;;;;;;;31.43;23.97;96529.06;5093803;28;20048;-64
2023/07/28 07:09:53;;;;;;;2.53;1.15;;;;;;;31.52;23.05;96527.91;5093853;28;20413;-64
2023/07/28 07:12:21;;;;;;;2.78;1.10;;;;;;;31.67;22.90;96527.00;5093937;28;20048;-64
2023/07/28 07:14:48;;;;;;;5.90;1.20;;;;;;;31.05;23.24;96527.34;5093917;28;20048;-64
2023/07/28 07:17:15;;;;;;;1.52;1.10;;;;;;;30.78;22.05;96527.84;5093865;28;20040;-64
2023/07/28 07:19:41;;;;;;;2.08;1.10;;;;;;;30.39;23.13;96514.44;5093845;28;20043;-64
2023/07/28 07:22:09;;;;;;;1.63;1.10;;;;;;;30.20;23.87;96523.06;5093808;28;20101;-64
2023/07/28 07:24:36;;;;;;;3.17;1.30;;;;;;;30.51;25.77;96522.91;5093834;28;20101;-64
2023/07/28 07:27:06;;;;;;;2.60;1.10;;;;;;;30.84;24.05;96519.00;5093612;28;20048;-64
2023/07/28 07:29:34;;;;;;;3.00;1.35;;;;;;;31.23;23.85;96521.53;5093673;28;20091;-65
2023/07/28 07:32:02;;;;;;;1.30;1.20;;;;;;;31.27;24.15;96520.97;5093713;28;20131;-64
2023/07/28 07:34:30;;;;;;;2.47;1.17;;;;;;;31.28;23.77;96522.63;5093498;28;20055;-64
2023/07/28 07:36:58;;;;;;;2.08;1.33;;;;;;;31.59;23.12;96519.84;5093483;28;20102;-65
2023/07/28 07:39:25;;;;;;;1.73;0.88;;;;;;;31.68;23.10;96517.84;5093562;28;20048;-65
2023/07/28 07:41:52;;;;;;;1.77;1.00;;;;;;;31.78;22.43;96515.66;5093596;28;20105;-65
2023/07/28 07:44:21;;;;;;;1.67;1.23;;;;;;;31.90;22.71;96526.78;5093620;28;20044;-65
2023/07/28 07:46:48;;;;;;;1.95;1.15;;;;;;;31.59;21.00;96526.09;5093347;28;20090;-64
2023/07/28 07:49:16;;;;;;;2.60;1.20;;;;;;;31.13;21.84;96511.03;5093382;28;20044;-65
2023/07/28 07:51:43;;;;;;;3.20;1.10;;;;;;;31.23;23.15;96511.56;5092914;28;20040;-65
2023/07/28 07:54:10;;;;;;;5.70;1.10;;;;;;;31.40;23.14;96517.59;5093250;28;20048;-65
2023/07/28 07:56:38;;;;;;;1.55;1.00;;;;;;;31.27;20.77;96512.00;5093353;28;20500;-64
2023/07/28 07:59:09;;;;;;;2.88;1.33;;;;;;;30.63;22.17;96506.25;5093390;28;20398;-64
2023/07/28 08:01:37;;;;;;;0.90;0.82;;;;;;;30.57;22.26;96509.69;5093374;28;20079;-64
2023/07/28 08:04:05;;;;;;;1.55;1.00;;;;;;;30.60;24.16;96501.22;5093025;28;20119;-65
2023/07/28 08:06:33;;;;;;;5.05;1.20;;;;;;;30.95;23.88;96508.75;5093171;28;20551;-65
2023/07/28 08:09:00;;;;;;;5.78;1.05;;;;;;;30.95;23.38;96506.06;5093153;28;20044;-65
2023/07/28 08:11:27;;;;;;;2.42;1.10;;;;;;;30.80;22.59;96500.66;5093068;28;20052;-65
2023/07/28 08:13:55;;;;;;;2.28;1.02;;;;;;;30.81;22.17;96497.78;5093074;28;20130;-65
2023/07/28 08:16:22;;;;;;;1.90;1.20;;;;;;;30.87;23.54;96499.75;5093083;28;20040;-65
2023/07/28 08:18:52;;;;;;;2.80;1.35;;;;;;;31.05;22.40;96495.78;5093059;28;20467;-65
2023/07/28 08:21:20;;;;;;;1.95;1.10;;;;;;;31.20;21.58;96497.59;5093092;28;20135;-65
2023/07/28 08:23:47;;;;;;;1.92;1.20;;;;;;;31.18;22.24;96497.78;5093020;28;20082;-65
2023/07/28 08:26:14;;;;;;;1.63;1.40;;;;;;;31.45;21.60;96502.69;5092946;28;20055;-65
2023/07/28 08:28:42;;;;;;;1.55;1.00;;;;;;;31.51;21.75;96496.50;5092806;28;20044;-65
2023/07/28 08:31:09;;;;;;;1.58;1.20;;;;;;;31.64;22.06;96493.09;5092936;28;20067;-65
2023/07/28 08:33:36;;;;;;;2.38;1.40;;;;;;;31.73;21.17;96501.91;5092929;28;20482;-65
2023/07/28 08:36:05;;;;;;;2.72;1.25;;;;;;;31.76;21.30;96496.13;5092847;28;20074;-65
2023/07/28 08:38:33;;;;;;;2.05;1.27;;;;;;;31.29;22.84;96501.88;5092817;28;20459;-65
2023/07/28 08:41:00;;;;;;;1.65;1.20;;;;;;;31.19;22.51;96504.03;5092967;28;20576;-65
2023/07/28 08:43:27;;;;;;;1.90;1.40;;;;;;;30.93;22.87;96503.53;5092914;28;20551;-65
2023/07/28 08:45:55;;;;;;;1.83;1.30;;;;;;;31.07;23.12;96492.91;5092752;28;20097;-65
2023/07/28 08:48:23;;;;;;;3.20;1.13;;;;;;;30.67;20.54;96493.22;5092678;28;20139;-65
2023/07/28 08:50:50;;;;;;;1.10;1.00;;;;;;;30.24;22.98;96492.00;5092685;28;20444;-65
2023/07/28 08:53:20;;;;;;;2.28;1.25;;;;;;;30.35;24.50;96488.88;5092665;28;20048;-64
2023/07/28 08:55:49;;;;;;;1.73;1.23;;;;;;;30.68;23.08;96494.88;5092637;28;20048;-65
2023/07/28 08:58:18;;;;;;;3.53;1.20;;;;;;;30.86;22.64;96495.38;5092839;28;20044;-64
2023/07/28 09:00:49;;;;;;;1.50;1.33;;;;;;;30.53;21.28;96493.03;5092645;28;20634;-65
2023/07/28 09:03:17;;;;;;;2.42;1.20;;;;;;;30.48;22.76;96495.44;5092473;28;20056;-64
2023/07/28 09:05:46;;;;;;;4.10;1.05;;;;;;;30.29;23.21;96486.06;5096148;28;20087;-65
2023/07/28 09:08:14;;;;;;;4.05;1.20;;;;;;;30.20;22.78;96488.84;5096348;28;20056;-65
2023/07/28 09:10:48;;;;;;;3.92;1.25;;;;;;;30.36;25.04;96486.97;5096314;28;20047;-64
2023/07/28 09:13:18;;;;;;;1.67;1.17;;;;;;;30.59;23.58;96484.22;5096312;28;20105;-64
2023/07/28 09:15:46;;;;;;;1.60;1.17;;;;;;;30.66;23.92;96486.16;5096327;28;20040;-65
2023/07/28 09:18:16;;;;;;;1.25;1.15;;;;;;;30.83;22.96;96481.41;5096266;28;20113;-65
2023/07/28 09:20:44;;;;;;;1.20;1.10;;;;;;;30.65;23.47;96488.00;5096181;28;20048;-64
2023/07/28 09:23:14;;;;;;;1.20;1.10;;;;;;;30.74;23.06;96484.19;5096245;28;20335;-64
2023/07/28 09:25:42;;;;;;;2.22;1.40;;;;;;;30.90;23.36;96482.31;5096208;28;20402;-65
2023/07/28 09:28:11;;;;;;;1.90;1.30;;;;;;;30.95;21.68;96473.66;5096088;28;20563;-65
2023/07/28 09:30:49;;;;;;;1.63;1.30;;;;;;;30.74;22.61;96467.16;5096022;28;20044;-65
2023/07/28 09:33:30;;;;;;;4.43;1.20;;;;;;;30.48;21.47;96466.63;5095787;28;20055;-65
2023/07/28 09:35:58;;;;;;;1.50;1.02;;;;;;;29.58;22.22;96464.63;5095989;28;20565;-64
2023/07/28 09:38:32;;;;;;;3.63;1.40;;;;;;;29.32;23.69;96457.75;5095963;28;20050;-64
2023/07/28 09:41:00;;;;;;;4.78;0.90;;;;;;;29.38;24.98;96459.69;5095781;28;20055;-64
2023/07/28 09:43:29;;;;;;;3.45;1.30;;;;;;;29.60;24.46;96461.75;5095780;28;20048;-64
2023/07/28 09:45:57;;;;;;;2.42;1.23;;;;;;;29.81;24.26;96458.38;5095656;28;20509;-64
2023/07/28 09:48:28;;;;;;;1.38;1.00;;;;;;;29.99;22.84;96441.00;5095445;28;20051;-64
2023/07/28 09:50:59;;;;;;;3.22;1.42;;;;;;;29.86;23.05;96455.13;5095657;28;20040;-64
2023/07/28 09:53:30;;;;;;;1.40;1.17;;;;;;;29.83;23.45;96445.53;5095530;28;20085;-64
2023/07/28 09:56:00;;;;;;;4.05;1.30;;;;;;;29.79;23.10;96444.22;5095590;28;20405;-64
2023/07/28 09:58:37;;;;;;;1.50;1.25;;;;;;;29.83;23.24;96448.22;5095491;28;20048;-64
2023/07/28 10:01:07;;;;;;;4.53;1.40;;;;;;;29.75;21.35;96441.06;5095445;28;20183;-64
2023/07/28 10:03:36;;;;;;;3.90;0.95;;;;;;;29.79;23.75;96449.63;5095019;28;20056;-65
2023/07/28 10:06:05;;;;;;;3.42;1.17;;;;;;;29.94;23.61;96436.16;5095343;28;20093;-64
2023/07/28 10:08:35;;;;;;;3.33;0.93;;;;;;;29.73;20.97;96435.03;5095077;28;20048;-64
2023/07/28 10:11:04;;;;;;;9.73;1.10;;;;;;;29.69;22.18;96435.56;5095135;28;20277;-65
2023/07/28 10:13:41;;;;;;;3.42;1.13;;;;;;;29.96;20.70;96426.06;5095194;28;20062;-64
2023/07/28 10:16:10;;;;;;;4.43;1.30;;;;;;;29.69;21.80;96417.56;5094574;28;20051;-64
2023/07/28 10:18:38;;;;;;;2.70;1.23;;;;;;;29.66;22.83;96417.06;5095109;28;20082;-64
2023/07/28 10:21:12;;;;;;;2.75;1.13;;;;;;;29.57;21.75;96417.16;5094954;28;20044;-64
2023/07/28 10:23:41;;;;;;;1.23;1.13;;;;;;;29.54;21.35;96411.25;5094704;28;20048;-64
2023/07/28 10:26:11;;;;;;;2.28;1.10;;;;;;;29.41;22.48;96401.09;5094763;28;20044;-64
2023/07/28 10:28:42;;;;;;;1.15;1.05;;;;;;;28.95;21.42;96414.38;5094712;28;20097;-64
2023/07/28 10:31:12;;;;;;;5.20;1.20;;;;;;;28.78;21.86;96400.19;5094808;28;20044;-64
2023/07/28 10:33:46;;;;;;;1.13;1.02;;;;;;;28.75;24.38;96393.28;5094681;28;20041;-64
2023/07/28 10:36:19;;;;;;;6.85;1.30;;;;;;;28.94;23.18;96404.66;5094682;28;20052;-64
2023/07/28 10:38:46;;;;;;;2.70;1.40;;;;;;;29.05;21.77;96395.34;5094689;28;20139;-64
2023/07/28 10:41:16;;;;;;;2.97;1.10;;;;;;;29.10;23.38;96392.06;5094662;28;20095;-64
2023/07/28 10:43:47;;;;;;;2.63;1.15;;;;;;;29.18;23.65;96385.81;5094520;28;20501;-64
2023/07/28 10:46:23;;;;;;;;;;;;;;;29.50;23.16;96383.88;5094988;28;20051;-64
2023/07/28 10:48:51;;;;;;;1.83;1.40;;;;;;;29.73;21.81;96367.66;5094287;28;19920;-64
2023/07/28 10:51:24;;;;;;;1.45;1.02;;;;;;;29.74;21.84;96371.19;5094655;28;20048;-64
2023/07/28 10:53:54;;;;;;;2.60;1.10;;;;;;;29.55;22.29;96364.47;5094483;28;20127;-64
2023/07/28 10:56:23;;;;;;;1.35;1.25;;;;;;;29.58;22.80;96366.78;5094310;28;20555;-64
2023/07/28 10:58:59;;;;;;;4.38;1.63;;;;;;;29.66;23.95;96364.03;5094191;28;20040;-64
2023/07/28 11:01:35;;;;;;;2.58;1.40;;;;;;;29.86;21.75;96361.63;5094250;28;20044;-65
2023/07/28 11:04:16;;;;;;;4.07;1.17;;;;;;;30.16;22.00;96363.53;5093854;28;20087;-64
2023/07/28 11:06:46;;;;;;;2.15;1.02;;;;;;;30.06;21.76;96361.06;5094101;28;20080;-64
2023/07/28 11:09:15;;;;;;;1.40;1.10;;;;;;;30.07;22.18;96361.91;5093797;28;20047;-64
2023/07/28 11:11:47;;;;;;;2.17;1.25;;;;;;;29.75;21.29;96357.53;5094016;28;20409;-64
2023/07/28 11:14:20;;;;;;;1.38;1.20;;;;;;;29.80;20.47;96364.22;5093863;28;20504;-64
2023/07/28 11:16:49;;;;;;;1.83;1.17;;;;;;;29.72;21.48;96351.69;5094026;28;20135;-64
2023/07/28 11:19:24;;;;;;;1.23;1.10;;;;;;;29.73;22.05;96351.50;5093863;28;20052;-64
2023/07/28 11:21:53;;;;;;;1.70;1.30;;;;;;;29.71;21.96;96350.00;5093883;28;20048;-64
2023/07/28 11:24:22;;;;;;;1.38;1.05;;;;;;;29.87;22.33;96343.59;5093762;28;20075;-65
2023/07/28 11:26:51;;;;;;;2.35;1.40;;;;;;;29.95;21.46;96343.50;5093043;28;20131;-65
2023/07/28 11:29:21;;;;;;;2.92;1.10;;;;;;;29.82;19.92;96338.75;5093733;28;20060;-64
2023/07/28 11:31:51;;;;;;;2.83;1.40;;;;;;;29.77;19.95;96335.81;5093734;28;20055;-64
2023/07/28 11:34:19;;;;;;;1.38;1.27;;;;;;;29.79;22.06;96341.81;5093732;28;20052;-64
2023/07/28 11:36:47;;;;;;;1.23;1.00;;;;;;;29.76;21.98;96334.97;5093711;28;20048;-64
2023/07/28 11:39:16;;;;;;;4.90;1.30;;;;;;;29.86;21.24;96341.94;5093546;28;20051;-64
2023/07/28 11:41:44;;;;;;;4.88;1.48;;;;;;;29.89;21.36;96334.31;5093531;28;20482;-64